Pazardzhik, Bulgaria
Current Conditions -  °F | °C
As of 8:00 PM on Thursday 30 Oct 2014 (Local Time) from LBPD Reporting Station
Light Rain Light Rain  
Wind Chill: 50°   Ceiling: 4000
Heat Index: 50°   Visibility: 4mi
Dew Point: 50°   Wind: 0mph
Humidity: 100%   Direction: NA
Pressure: 30.15"   Gusts: NA
Location:  42.2°N, 24.34°E
Report Text: LBPD 301700Z 00000MPS 7000 -RA SCT030 BKN040 OVC060 10/10 Q1021 NOSIG
Loading
Personal Weather Stations






























Interactive Weather Map
Tropical Storm Tracking
New forecast layout! Learn more

10-Day Weather Forecast

Advertisements
Track Severe Weather on mobile